createdAt,value
2023-02-12T00:01:29.347Z,10.9
2023-02-12T00:06:29.178Z,10.8
2023-02-12T00:11:29.098Z,10.7
2023-02-12T00:16:29.231Z,10.6
2023-02-12T00:21:29.133Z,10.6
2023-02-12T00:26:29.084Z,10.5
2023-02-12T00:31:29.140Z,10.4
2023-02-12T00:36:29.092Z,10.3
2023-02-12T00:41:29.333Z,10.3
2023-02-12T00:46:29.148Z,10.2
2023-02-12T00:51:29.111Z,10.2
2023-02-12T00:56:29.075Z,10.1
2023-02-12T01:01:29.217Z,10.1
2023-02-12T01:06:29.087Z,10
2023-02-12T01:11:29.160Z,10
2023-02-12T01:16:29.135Z,9.9
2023-02-12T01:21:29.209Z,9.8
2023-02-12T01:26:29.103Z,9.8
2023-02-12T01:31:29.258Z,9.8
2023-02-12T01:36:29.097Z,9.7
2023-02-12T01:41:29.212Z,9.6
2023-02-12T01:46:29.133Z,9.6
2023-02-12T01:51:29.101Z,9.5
2023-02-12T01:56:29.091Z,9.5
2023-02-12T02:01:29.208Z,9.5
2023-02-12T02:06:29.096Z,9.4
2023-02-12T02:11:29.154Z,9.4
2023-02-12T02:16:29.162Z,9.4
2023-02-12T02:21:29.178Z,9.3
2023-02-12T02:26:29.080Z,9.3
2023-02-12T02:31:29.154Z,9.2
2023-02-12T02:36:29.074Z,9.2
2023-02-12T02:41:29.111Z,9.2
2023-02-12T02:46:29.153Z,9.2
2023-02-12T02:51:29.072Z,9.1
2023-02-12T02:56:29.077Z,9.1
2023-02-12T03:01:29.097Z,9.1
2023-02-12T03:06:29.079Z,9.1
2023-02-12T03:11:29.264Z,9.1
2023-02-12T03:16:29.194Z,9
2023-02-12T03:21:29.162Z,9
2023-02-12T03:26:29.091Z,9.1
2023-02-12T03:31:29.267Z,9.1
2023-02-12T03:36:29.061Z,9.1
2023-02-12T03:41:29.158Z,9.1
2023-02-12T03:46:29.125Z,9.1
2023-02-12T03:51:29.118Z,9.2
2023-02-12T03:56:29.138Z,9.1
2023-02-12T04:01:29.208Z,9.1
2023-02-12T04:06:29.148Z,9.1
2023-02-12T04:11:29.058Z,9
2023-02-12T04:16:29.090Z,9
2023-02-12T04:21:29.078Z,8.9
2023-02-12T04:26:29.050Z,8.9
2023-02-12T04:31:29.182Z,8.9
2023-02-12T04:36:29.128Z,8.8
2023-02-12T04:41:29.066Z,8.8
2023-02-12T04:46:29.130Z,8.8
2023-02-12T04:51:29.046Z,8.8
2023-02-12T04:56:29.038Z,8.8
2023-02-12T05:01:31.305Z,8.7
2023-02-12T05:06:29.271Z,8.7
2023-02-12T05:11:29.044Z,8.6
2023-02-12T05:16:29.054Z,8.7
2023-02-12T05:21:29.068Z,8.7
2023-02-12T05:26:29.060Z,8.6
2023-02-12T05:31:29.157Z,8.6
2023-02-12T05:36:29.040Z,8.6
2023-02-12T05:41:29.073Z,8.6
2023-02-12T05:46:29.062Z,8.6
2023-02-12T05:51:29.054Z,8.5
2023-02-12T05:56:29.017Z,8.6
2023-02-12T06:01:29.069Z,8.5
2023-02-12T06:06:29.291Z,8.5
2023-02-12T06:11:29.016Z,8.5
2023-02-12T06:16:29.260Z,8.5
2023-02-12T06:21:29.052Z,8.5
2023-02-12T06:26:29.021Z,8.4
2023-02-12T06:31:29.259Z,8.5
2023-02-12T06:36:29.315Z,8.4
2023-02-12T06:41:29.050Z,8.5
2023-02-12T06:46:29.282Z,8.5
2023-02-12T06:51:29.061Z,8.4
2023-02-12T06:56:29.018Z,8.4
2023-02-12T07:01:29.039Z,8.4
2023-02-12T07:06:29.036Z,8.4
2023-02-12T07:11:29.029Z,8.4
2023-02-12T07:16:29.213Z,8.4
2023-02-12T07:21:29.366Z,8.4
2023-02-12T07:26:29.099Z,8.4
2023-02-12T07:31:29.413Z,8.4
2023-02-12T07:36:29.294Z,8.4
2023-02-12T07:41:29.137Z,8.4
2023-02-12T07:46:29.326Z,8.5
2023-02-12T07:51:29.324Z,8.5
2023-02-12T07:56:29.091Z,8.5
2023-02-12T08:01:29.147Z,8.5
2023-02-12T08:06:29.101Z,8.5
2023-02-12T08:11:29.105Z,8.6
2023-02-12T08:16:29.791Z,8.6
2023-02-12T08:21:29.378Z,8.6
2023-02-12T08:26:29.272Z,8.6
2023-02-12T08:31:29.148Z,8.7
2023-02-12T08:36:29.133Z,8.7
2023-02-12T08:41:29.171Z,8.7
2023-02-12T08:46:29.207Z,8.7
2023-02-12T08:51:29.127Z,8.8
2023-02-12T08:56:29.129Z,8.8
2023-02-12T09:01:29.164Z,8.9
2023-02-12T09:06:29.125Z,8.9
2023-02-12T09:11:29.181Z,8.9
2023-02-12T09:16:29.194Z,9.3
2023-02-12T09:21:29.143Z,10.6
2023-02-12T09:26:29.114Z,12.2
2023-02-12T09:31:29.405Z,14
2023-02-12T09:36:29.106Z,15.1
2023-02-12T09:44:08.709Z,19.2
2023-02-12T09:49:08.767Z,21.2
2023-02-12T09:54:08.641Z,22.8
2023-02-12T09:59:08.687Z,24.1
2023-02-12T10:04:08.735Z,25.2
2023-02-12T10:09:08.621Z,26.1
2023-02-12T10:14:08.593Z,26.6
2023-02-12T10:19:08.631Z,27
2023-02-12T10:24:08.626Z,27.5
2023-02-12T10:29:08.633Z,27.9
2023-02-12T10:34:08.597Z,28.1
2023-02-12T10:39:08.624Z,28.2
2023-02-12T10:44:08.665Z,28.4
2023-02-12T10:49:08.606Z,28.6
2023-02-12T10:54:08.599Z,28.6
2023-02-12T10:59:08.643Z,28.6
2023-02-12T11:04:08.649Z,28.5
2023-02-12T11:09:08.612Z,28.4
2023-02-12T11:14:08.610Z,28
2023-02-12T11:19:08.636Z,27.9
2023-02-12T11:24:08.621Z,27.6
2023-02-12T11:29:08.866Z,27.3
2023-02-12T11:34:08.625Z,26.8
2023-02-12T11:39:08.684Z,26.3
2023-02-12T11:44:08.656Z,26
2023-02-12T11:49:08.631Z,25.9
2023-02-12T11:54:08.630Z,25.6
2023-02-12T11:59:08.637Z,25.3
2023-02-12T12:04:08.655Z,25
2023-02-12T12:09:08.629Z,24.7
2023-02-12T12:14:08.627Z,24.3
2023-02-12T12:19:08.637Z,23.9
2023-02-12T12:24:08.643Z,23.5
2023-02-12T12:29:08.627Z,23.1
2023-02-12T12:34:08.631Z,22.7
2023-02-12T12:39:08.630Z,22.3
2023-02-12T12:44:08.623Z,22
2023-02-12T12:49:08.641Z,21.6
2023-02-12T12:54:08.630Z,21.2
2023-02-12T12:59:08.594Z,20.9
2023-02-12T13:04:08.619Z,20.7
2023-02-12T13:09:08.741Z,20.5
2023-02-12T13:14:08.616Z,20.3
2023-02-12T13:19:08.617Z,20.2
2023-02-12T13:24:08.640Z,20
2023-02-12T13:29:08.611Z,20
2023-02-12T13:34:08.612Z,20.3
2023-02-12T13:39:08.612Z,21
2023-02-12T13:44:08.628Z,21.5
2023-02-12T13:49:08.587Z,22
2023-02-12T13:54:08.592Z,22
2023-02-12T13:59:08.604Z,21.7
2023-02-12T14:04:08.703Z,21.5
2023-02-12T14:09:08.600Z,21.2
2023-02-12T14:14:08.605Z,21
2023-02-12T14:19:08.602Z,20.8
2023-02-12T14:24:08.619Z,20.5
2023-02-12T14:29:08.601Z,20.2
2023-02-12T14:34:08.606Z,19.9
2023-02-12T14:39:08.619Z,19.7
2023-02-12T14:44:08.618Z,19.4
2023-02-12T14:49:08.604Z,19.3
2023-02-12T14:54:08.592Z,19.1
2023-02-12T14:59:08.607Z,18.9
2023-02-12T15:04:08.621Z,18.8
2023-02-12T15:09:08.613Z,18.7
2023-02-12T15:14:08.589Z,18.7
2023-02-12T15:19:08.669Z,18.6
2023-02-12T15:24:08.679Z,18.6
2023-02-12T15:29:08.592Z,18.6
2023-02-12T15:34:08.582Z,18.5
2023-02-12T15:39:08.616Z,18.4
2023-02-12T15:44:08.647Z,18.2
2023-02-12T15:49:08.623Z,18.2
2023-02-12T15:54:08.608Z,18.1
2023-02-12T15:59:08.619Z,17.9
2023-02-12T16:04:08.703Z,17.8
2023-02-12T16:09:08.601Z,17.8
2023-02-12T16:14:08.614Z,17.7
2023-02-12T16:19:08.610Z,17.7
2023-02-12T16:24:08.623Z,17.7
2023-02-12T16:29:08.603Z,17.7
2023-02-12T16:34:08.595Z,17.6
2023-02-12T16:39:08.609Z,17.6
2023-02-12T16:44:08.613Z,17.6
2023-02-12T16:49:08.604Z,17.5
2023-02-12T16:54:08.636Z,17.4
2023-02-12T16:59:08.600Z,17.3
2023-02-12T17:04:08.621Z,17.3
2023-02-12T17:09:08.606Z,17.2
2023-02-12T17:14:08.590Z,17.2
2023-02-12T17:19:08.617Z,17.2
2023-02-12T17:24:08.634Z,17.3
2023-02-12T17:29:08.616Z,17.2
2023-02-12T17:34:08.639Z,17.2
2023-02-12T17:39:08.643Z,17.1
2023-02-12T17:44:08.657Z,16.9
2023-02-12T17:49:08.638Z,16.9
2023-02-12T17:54:08.625Z,16.9
2023-02-12T17:59:08.643Z,16.8
2023-02-12T18:04:08.725Z,16.8
2023-02-12T18:09:08.785Z,16.8
2023-02-12T18:14:08.637Z,16.8
2023-02-12T18:19:08.659Z,16.7
2023-02-12T18:24:08.703Z,16.7
2023-02-12T18:29:08.733Z,16.7
2023-02-12T18:34:08.673Z,16.7
2023-02-12T18:39:08.684Z,16.7
2023-02-12T18:44:08.709Z,16.8
2023-02-12T18:49:08.686Z,16.8
2023-02-12T18:54:08.715Z,16.8
2023-02-12T18:59:08.687Z,16.8
2023-02-12T19:04:08.734Z,16.9
2023-02-12T19:09:08.648Z,16.9
2023-02-12T19:14:08.698Z,16.9
2023-02-12T19:19:08.661Z,16.9
2023-02-12T19:24:08.677Z,16.9
2023-02-12T19:29:08.717Z,17
2023-02-12T19:34:08.662Z,17
2023-02-12T19:39:08.807Z,17
2023-02-12T19:44:08.748Z,16.9
2023-02-12T19:49:08.673Z,16.9
2023-02-12T19:54:08.652Z,16.9
2023-02-12T19:59:08.683Z,16.7
2023-02-12T20:04:08.687Z,16.8
2023-02-12T20:09:08.718Z,16.7
2023-02-12T20:14:08.653Z,16.7
2023-02-12T20:19:08.683Z,16.9
2023-02-12T20:24:08.688Z,16.9
2023-02-12T20:29:08.668Z,18.3
2023-02-12T20:34:08.658Z,18.4
2023-02-12T20:39:08.841Z,18.2
2023-02-12T20:44:08.704Z,18
2023-02-12T20:49:08.683Z,17.8
2023-02-12T20:54:08.690Z,18
2023-02-12T20:59:08.758Z,18.3
2023-02-12T21:04:08.756Z,18.6
2023-02-12T21:09:08.877Z,19
2023-02-12T21:14:21.116Z,19
2023-02-12T21:19:08.800Z,18.8
2023-02-12T21:24:08.736Z,18.5
2023-02-12T21:29:08.703Z,18.5
2023-02-12T21:34:08.687Z,19.2
2023-02-12T21:39:08.721Z,19.4
2023-02-12T21:44:08.731Z,19.4
2023-02-12T21:49:08.712Z,19.9
2023-02-12T21:54:08.736Z,19.9
2023-02-12T21:59:08.692Z,20.4
2023-02-12T22:04:08.712Z,21
2023-02-12T22:09:09.013Z,21.4
2023-02-12T22:14:08.685Z,21.9
2023-02-12T22:19:08.676Z,21.9
2023-02-12T22:24:08.718Z,19
2023-02-12T22:29:08.687Z,17.2
2023-02-12T22:34:08.669Z,16
2023-02-12T22:39:08.671Z,15
2023-02-12T22:44:08.688Z,14.6
2023-02-12T22:49:08.668Z,14.2
2023-02-12T22:54:08.660Z,13.7
2023-02-12T22:59:08.673Z,13.4
2023-02-12T23:04:08.745Z,13.1
2023-02-12T23:09:08.674Z,12.9
2023-02-12T23:14:08.651Z,12.7
2023-02-12T23:19:08.690Z,12.5
2023-02-12T23:24:08.683Z,12.4
2023-02-12T23:29:08.749Z,12.3
2023-02-12T23:34:08.710Z,12.1
2023-02-12T23:39:08.701Z,12
2023-02-12T23:44:08.698Z,12
2023-02-12T23:49:08.704Z,11.8
2023-02-12T23:54:08.678Z,11.7
2023-02-12T23:59:08.670Z,11.6
